Segovia, Spain
Current Conditions -  °F | °C
As of 6:00 PM on Thursday 30 Oct 2014 (Local Time) from LEVS Reporting Station
Clear Clear  
Wind Chill: 75°   Ceiling: Unl
Heat Index: 75°   Visibility: 6mi
Dew Point: 43°   Wind: 0mph
Humidity: 31%   Direction: NA
Pressure: 30.18"   Gusts: NA
Location:  40.95°N, 4.12°W
Report Text: LEVS 301700Z 00000KT CAVOK 24/06 Q1022
Loading
Personal Weather Stations






























Interactive Weather Map
Tropical Storm Tracking
New forecast layout! Learn more

10-Day Weather Forecast

Advertisements
Track Severe Weather on mobile